Time;durP1;ratioP1;P1;durP2;ratioP2;P2;SDS_P1;SDS_P2;PMS_P1;PMS_P2;Temp;Humidity;BMP_temperature;BMP_pressure;BME280_temperature;BME280_humidity;BME280_pressure;Samples;Min_cycle;Max_cycle;Signal;HPM_P1;HPM_P2
2022/07/22 00:01:14;;;;;;;10.35;1.85;;;17.00;99.90;;;;;;4840463;29;20042;-77
2022/07/22 00:03:40;;;;;;;8.05;1.10;;;17.00;99.90;;;;;;4841579;29;20101;-76
2022/07/22 00:06:06;;;;;;;9.60;1.35;;;17.00;99.90;;;;;;4833665;29;20040;-76
2022/07/22 00:08:32;;;;;;;15.35;1.75;;;16.90;99.90;;;;;;4840035;29;20022;-77
2022/07/22 00:10:57;;;;;;;9.05;1.73;;;16.90;99.90;;;;;;4837576;29;20033;-77
2022/07/22 00:13:23;;;;;;;4.45;1.70;;;17.00;99.90;;;;;;4835686;29;20091;-77
2022/07/22 00:15:49;;;;;;;8.95;1.85;;;17.00;99.90;;;;;;4847337;29;20108;-77
2022/07/22 00:18:22;;;;;;;3.33;1.92;;;17.00;99.90;;;;;;4846876;29;20557;-76
2022/07/22 00:20:47;;;;;;;9.70;1.50;;;17.10;99.90;;;;;;4829888;29;20124;-78
2022/07/22 00:23:13;;;;;;;7.15;1.42;;;17.00;99.90;;;;;;4832985;29;20601;-74
2022/07/22 00:25:38;;;;;;;5.00;1.52;;;17.00;99.90;;;;;;4836502;29;20042;-76
2022/07/22 00:28:04;;;;;;;3.28;1.27;;;17.10;99.90;;;;;;4839909;29;20022;-76
2022/07/22 00:30:29;;;;;;;2.55;1.13;;;17.10;99.90;;;;;;4840536;29;20049;-76
2022/07/22 00:32:55;;;;;;;7.13;2.03;;;17.00;99.90;;;;;;4843471;29;20101;-77
2022/07/22 00:35:21;;;;;;;5.57;1.10;;;17.00;99.90;;;;;;4840305;29;20033;-76
2022/07/22 00:37:46;;;;;;;5.10;1.10;;;17.00;99.90;;;;;;4838633;29;20053;-76
2022/07/22 00:40:12;;;;;;;7.47;1.55;;;17.00;99.90;;;;;;4842429;29;20454;-76
2022/07/22 00:42:38;;;;;;;4.10;1.40;;;16.90;99.90;;;;;;4842648;29;20402;-76
2022/07/22 00:45:04;;;;;;;5.30;2.13;;;17.00;99.90;;;;;;4848443;29;20038;-76
2022/07/22 00:47:30;;;;;;;2.95;1.25;;;17.00;99.90;;;;;;4833864;29;20052;-76
2022/07/22 00:49:56;;;;;;;2.42;1.38;;;17.00;99.90;;;;;;4857904;29;20108;-76
2022/07/22 00:52:22;;;;;;;3.53;1.20;;;17.00;99.90;;;;;;4867228;29;20093;-76
2022/07/22 00:54:49;;;;;;;8.13;1.13;;;17.00;99.90;;;;;;4865626;29;20536;-76
2022/07/22 00:57:15;;;;;;;5.57;1.63;;;17.10;99.90;;;;;;4875398;29;20390;-76
2022/07/22 00:59:40;;;;;;;9.85;1.13;;;17.00;99.90;;;;;;4866364;29;20033;-76
2022/07/22 01:02:06;;;;;;;8.25;1.40;;;17.00;99.90;;;;;;4860229;29;20029;-76
2022/07/22 01:04:32;;;;;;;3.58;1.83;;;17.00;99.90;;;;;;4859503;29;20089;-76
2022/07/22 01:06:57;;;;;;;3.33;1.20;;;17.00;99.90;;;;;;4846309;29;20505;-77
2022/07/22 01:09:23;;;;;;;3.35;1.38;;;17.00;99.90;;;;;;4862008;29;20549;-77
2022/07/22 01:11:48;;;;;;;2.83;1.38;;;17.00;99.90;;;;;;4846181;29;20478;-77
2022/07/22 01:14:14;;;;;;;4.28;1.55;;;17.00;99.90;;;;;;4842989;29;20034;-77
2022/07/22 01:16:40;;;;;;;1.33;1.10;;;17.00;99.90;;;;;;4864190;29;20474;-77
2022/07/22 01:19:05;;;;;;;6.85;1.30;;;17.00;99.90;;;;;;4861737;29;20022;-77
2022/07/22 01:21:31;;;;;;;6.07;1.33;;;17.00;99.90;;;;;;4863015;29;20032;-76
2022/07/22 01:23:57;;;;;;;3.60;1.70;;;17.00;99.90;;;;;;4861722;29;20512;-76
2022/07/22 01:26:23;;;;;;;2.13;1.63;;;17.00;99.90;;;;;;4860913;29;20030;-76
2022/07/22 01:28:48;;;;;;;3.45;1.17;;;17.00;99.90;;;;;;4863437;29;20046;-76
2022/07/22 01:31:14;;;;;;;9.63;1.92;;;17.00;99.90;;;;;;4845086;29;20178;-77
2022/07/22 01:33:40;;;;;;;4.40;1.75;;;17.00;99.90;;;;;;4860579;29;20091;-76
2022/07/22 01:36:06;;;;;;;2.42;1.30;;;17.00;99.90;;;;;;4841081;29;20447;-76
2022/07/22 01:38:32;;;;;;;4.57;1.63;;;17.00;99.90;;;;;;4855626;29;20081;-76
2022/07/22 01:40:58;;;;;;;9.50;1.58;;;17.10;99.90;;;;;;4855827;29;20033;-76
2022/07/22 01:43:23;;;;;;;2.08;1.48;;;17.00;99.90;;;;;;4860079;29;20040;-77
2022/07/22 01:45:52;;;;;;;8.05;2.55;;;17.10;99.90;;;;;;4861960;29;20029;-77
2022/07/22 01:48:18;;;;;;;2.80;1.15;;;17.10;99.90;;;;;;4868993;29;20440;-77
2022/07/22 01:50:45;;;;;;;4.43;0.93;;;17.10;99.90;;;;;;4849930;29;20239;-77
2022/07/22 01:53:11;;;;;;;6.53;1.45;;;17.10;99.90;;;;;;4845868;29;20030;-77
2022/07/22 01:55:37;;;;;;;5.93;1.42;;;17.10;99.90;;;;;;4863758;29;20485;-77
2022/07/22 01:58:04;;;;;;;3.72;1.02;;;17.10;99.90;;;;;;4859398;29;20235;-76
2022/07/22 02:00:30;;;;;;;4.68;1.50;;;17.00;99.90;;;;;;4838849;29;20371;-77
2022/07/22 02:02:56;;;;;;;5.30;1.08;;;17.10;99.90;;;;;;4846585;29;20119;-77
2022/07/22 02:05:22;;;;;;;3.13;1.05;;;17.00;99.90;;;;;;4851362;29;21507;-76
2022/07/22 02:07:47;;;;;;;9.68;1.25;;;17.00;99.90;;;;;;4862116;29;20037;-77
2022/07/22 02:10:13;;;;;;;3.83;1.75;;;17.00;99.90;;;;;;4842555;29;20029;-77
2022/07/22 02:12:39;;;;;;;2.55;1.02;;;17.00;99.90;;;;;;4840809;29;20041;-77
2022/07/22 02:15:05;;;;;;;6.55;1.13;;;17.00;99.90;;;;;;4840066;29;20198;-77
2022/07/22 02:17:33;;;;;;;4.40;1.25;;;17.00;99.90;;;;;;4865530;29;20485;-77
2022/07/22 02:19:58;;;;;;;3.20;1.23;;;17.00;99.90;;;;;;4861542;29;20057;-76
2022/07/22 02:22:24;;;;;;;2.97;0.85;;;17.00;99.90;;;;;;4857833;29;20026;-77
2022/07/22 02:24:50;;;;;;;3.22;1.10;;;17.00;99.90;;;;;;4861449;29;20033;-77
2022/07/22 02:27:15;;;;;;;6.45;1.27;;;17.10;99.90;;;;;;4857051;29;20033;-77
2022/07/22 02:29:41;;;;;;;3.25;1.17;;;17.10;99.90;;;;;;4846386;29;20041;-77
2022/07/22 02:32:07;;;;;;;1.33;0.98;;;17.10;99.90;;;;;;4863827;29;20371;-76
2022/07/22 02:34:33;;;;;;;2.65;1.13;;;17.10;99.90;;;;;;4842458;29;20105;-77
2022/07/22 02:36:59;;;;;;;2.65;1.45;;;17.10;99.90;;;;;;4842807;29;20041;-77
2022/07/22 02:39:24;;;;;;;2.70;1.05;;;17.10;99.90;;;;;;4846601;29;20054;-76
2022/07/22 02:41:50;;;;;;;3.22;1.08;;;17.10;99.90;;;;;;4841105;29;20041;-77
2022/07/22 02:44:15;;;;;;;14.65;1.55;;;17.10;99.90;;;;;;4840886;29;20037;-77
2022/07/22 02:46:41;;;;;;;2.67;1.20;;;17.10;99.90;;;;;;4833014;29;20432;-77
2022/07/22 02:49:07;;;;;;;4.30;0.90;;;17.10;99.90;;;;;;4833994;29;20034;-77
2022/07/22 02:51:32;;;;;;;2.58;0.88;;;17.10;99.90;;;;;;4843664;29;20034;-77
2022/07/22 02:53:58;;;;;;;8.20;1.15;;;17.10;99.90;;;;;;4847643;29;20074;-77
2022/07/22 02:56:23;;;;;;;8.20;1.48;;;17.10;99.90;;;;;;4851195;29;20048;-77
2022/07/22 02:58:51;;;;;;;2.75;1.20;;;17.10;99.90;;;;;;4849841;29;20022;-77
2022/07/22 03:01:18;;;;;;;2.03;1.17;;;17.10;99.90;;;;;;4840991;29;20117;-77
2022/07/22 03:03:44;;;;;;;4.70;1.08;;;17.20;99.90;;;;;;4847768;29;20041;-77
2022/07/22 03:06:10;;;;;;;4.63;1.23;;;17.10;99.90;;;;;;4836882;29;20031;-77
2022/07/22 03:08:36;;;;;;;2.65;0.95;;;17.10;99.90;;;;;;4848639;29;20039;-77
2022/07/22 03:11:02;;;;;;;1.40;0.90;;;17.10;99.90;;;;;;4845542;29;20029;-76
2022/07/22 03:13:28;;;;;;;4.03;1.70;;;17.20;99.90;;;;;;4842424;29;20045;-76
2022/07/22 03:15:54;;;;;;;6.60;1.20;;;17.20;99.90;;;;;;4843089;29;20538;-77
2022/07/22 03:18:19;;;;;;;3.90;0.98;;;17.30;99.90;;;;;;4845856;29;20121;-77
2022/07/22 03:20:45;;;;;;;8.13;1.02;;;17.20;99.90;;;;;;4841214;29;20033;-77
2022/07/22 03:23:11;;;;;;;9.50;1.13;;;17.20;99.90;;;;;;4841308;29;20045;-77
2022/07/22 03:25:36;;;;;;;3.35;1.10;;;17.20;99.90;;;;;;4852551;29;20038;-77
2022/07/22 03:28:02;;;;;;;3.50;0.90;;;17.10;99.90;;;;;;4859574;29;20058;-78
2022/07/22 03:30:28;;;;;;;2.65;1.10;;;17.10;99.90;;;;;;4841174;29;20091;-77
2022/07/22 03:32:53;;;;;;;1.73;1.10;;;17.10;99.90;;;;;;4845767;29;20108;-77
2022/07/22 03:35:20;;;;;;;4.22;0.93;;;17.10;99.90;;;;;;4857503;29;20030;-77
2022/07/22 03:37:45;;;;;;;4.15;1.05;;;17.10;99.90;;;;;;4836689;29;20482;-77
2022/07/22 03:40:11;;;;;;;4.63;1.30;;;17.10;99.90;;;;;;4856098;29;20135;-77
2022/07/22 03:42:37;;;;;;;5.25;1.00;;;17.10;99.90;;;;;;4859163;29;20076;-77
2022/07/22 03:45:03;;;;;;;5.32;1.00;;;17.10;99.90;;;;;;4865415;29;20061;-77
2022/07/22 03:47:28;;;;;;;5.22;1.27;;;17.10;99.90;;;;;;4865217;29;20037;-77
2022/07/22 03:49:54;;;;;;;2.72;1.25;;;17.10;99.90;;;;;;4864442;29;20029;-76
2022/07/22 03:52:20;;;;;;;3.83;1.02;;;17.10;99.90;;;;;;4857859;29;20030;-77
2022/07/22 03:54:45;;;;;;;3.60;1.10;;;17.10;99.90;;;;;;4860300;29;20036;-77
2022/07/22 03:57:11;;;;;;;3.55;1.13;;;17.10;99.90;;;;;;4857500;29;20485;-77
2022/07/22 03:59:37;;;;;;;4.97;1.33;;;17.10;99.90;;;;;;4862214;29;20029;-78
2022/07/22 04:02:03;;;;;;;4.53;1.05;;;17.10;99.90;;;;;;4843834;29;20493;-77
2022/07/22 04:04:29;;;;;;;5.15;1.30;;;17.10;99.90;;;;;;4846305;29;20048;-77
2022/07/22 04:06:55;;;;;;;7.53;1.13;;;17.10;99.90;;;;;;4843023;29;20104;-77
2022/07/22 04:09:20;;;;;;;5.78;1.08;;;17.10;99.90;;;;;;4858442;29;20423;-78
2022/07/22 04:11:46;;;;;;;6.07;1.30;;;17.10;99.90;;;;;;4856621;29;20196;-76
2022/07/22 04:14:12;;;;;;;2.33;1.13;;;17.00;99.90;;;;;;4841774;29;20118;-77
2022/07/22 04:16:37;;;;;;;4.70;1.50;;;17.00;99.90;;;;;;4860711;29;20040;-77
2022/07/22 04:19:04;;;;;;;5.70;1.00;;;17.00;99.90;;;;;;4841187;29;20037;-77
2022/07/22 04:21:29;;;;;;;1.75;1.10;;;17.00;99.90;;;;;;4861056;29;20112;-77
2022/07/22 04:23:55;;;;;;;4.95;1.17;;;17.00;99.90;;;;;;4834994;29;20148;-77
2022/07/22 04:26:21;;;;;;;3.10;0.95;;;17.00;99.90;;;;;;4841096;29;20045;-77
2022/07/22 04:28:48;;;;;;;11.82;1.25;;;17.10;99.90;;;;;;4853703;29;20053;-77
2022/07/22 04:31:13;;;;;;;3.42;0.82;;;17.10;99.90;;;;;;4864652;29;20033;-77
2022/07/22 04:33:39;;;;;;;2.75;1.02;;;17.10;99.90;;;;;;4845297;29;20363;-77
2022/07/22 04:36:05;;;;;;;4.95;1.67;;;17.10;99.90;;;;;;4844838;29;20076;-77
2022/07/22 04:38:30;;;;;;;1.60;1.00;;;17.10;99.90;;;;;;4867682;29;20057;-77
2022/07/22 04:40:56;;;;;;;1.17;1.08;;;17.20;99.90;;;;;;4858510;29;20029;-77
2022/07/22 04:43:22;;;;;;;4.50;0.80;;;17.20;99.90;;;;;;4860774;29;20030;-77
2022/07/22 04:45:47;;;;;;;1.15;0.70;;;17.20;99.90;;;;;;4838757;29;20025;-77
2022/07/22 04:48:13;;;;;;;3.30;0.82;;;17.30;99.90;;;;;;4841821;29;20030;-77
2022/07/22 04:50:39;;;;;;;4.50;0.80;;;17.30;99.90;;;;;;4838774;29;20037;-77
2022/07/22 04:53:05;;;;;;;2.88;1.02;;;17.30;99.90;;;;;;4866316;29;20025;-77
2022/07/22 04:55:30;;;;;;;5.00;0.77;;;17.30;99.90;;;;;;4847020;29;20045;-77
2022/07/22 04:57:56;;;;;;;2.45;0.57;;;17.30;99.90;;;;;;4855766;29;20567;-77
2022/07/22 05:00:22;;;;;;;5.72;0.70;;;17.30;99.90;;;;;;4857601;29;20454;-77
2022/07/22 05:02:48;;;;;;;4.85;0.77;;;17.30;99.90;;;;;;4856251;29;20030;-76
2022/07/22 05:05:13;;;;;;;4.45;0.70;;;17.30;99.90;;;;;;4843054;29;20468;-77
2022/07/22 05:07:39;;;;;;;1.23;0.57;;;17.30;99.90;;;;;;4842873;29;20410;-77
2022/07/22 05:10:05;;;;;;;8.77;1.00;;;17.40;99.90;;;;;;4855218;29;20034;-77
2022/07/22 05:12:31;;;;;;;2.75;0.70;;;17.40;99.90;;;;;;4858214;29;20096;-77
2022/07/22 05:14:57;;;;;;;5.22;0.90;;;17.40;99.90;;;;;;4857255;29;20208;-77
2022/07/22 05:17:22;;;;;;;2.28;0.50;;;17.30;99.90;;;;;;4850365;29;20068;-77
2022/07/22 05:19:48;;;;;;;6.30;0.90;;;17.30;99.90;;;;;;4840851;29;20037;-77
2022/07/22 05:22:14;;;;;;;2.05;0.98;;;17.40;99.90;;;;;;4865745;29;20025;-77
2022/07/22 05:24:39;;;;;;;1.88;1.25;;;17.30;99.90;;;;;;4861924;29;20049;-77
2022/07/22 05:27:05;;;;;;;2.00;0.95;;;17.30;99.90;;;;;;4859821;29;20033;-77
2022/07/22 05:29:31;;;;;;;1.77;1.50;;;17.30;99.90;;;;;;4857517;29;20097;-77
2022/07/22 05:31:56;;;;;;;2.15;1.35;;;17.30;99.90;;;;;;4870005;29;20064;-77
2022/07/22 05:34:22;;;;;;;11.95;2.42;;;17.30;99.90;;;;;;4859338;29;20099;-78
2022/07/22 05:36:48;;;;;;;1.60;1.45;;;17.30;99.90;;;;;;4847328;29;20085;-76
2022/07/22 05:39:14;;;;;;;1.80;1.70;;;17.40;99.90;;;;;;4856281;29;20037;-77
2022/07/22 05:41:39;;;;;;;1.70;1.60;;;17.40;99.90;;;;;;4856083;29;20091;-77
2022/07/22 05:44:05;;;;;;;3.03;2.25;;;17.40;99.90;;;;;;4842074;29;20053;-77
2022/07/22 05:46:31;;;;;;;6.15;2.03;;;17.50;99.90;;;;;;4855593;29;20045;-77
2022/07/22 05:48:57;;;;;;;2.63;1.80;;;17.50;99.90;;;;;;4837610;29;20626;-77
2022/07/22 05:51:23;;;;;;;3.75;1.70;;;17.50;99.90;;;;;;4857401;29;20422;-77
2022/07/22 05:53:49;;;;;;;1.50;1.40;;;17.50;99.90;;;;;;4857784;29;20033;-76
2022/07/22 05:56:15;;;;;;;3.72;1.50;;;17.60;99.90;;;;;;4848368;29;20102;-77
2022/07/22 05:58:41;;;;;;;2.30;1.10;;;17.60;99.90;;;;;;4861744;29;20482;-76
2022/07/22 06:01:09;;;;;;;3.63;1.10;;;17.60;99.90;;;;;;4858597;29;20048;-77
2022/07/22 06:03:35;;;;;;;;;;;17.70;99.90;;;;;;4870898;29;20076;-77
2022/07/22 06:06:01;;;;;;;3.42;1.30;;;17.70;99.90;;;;;;4866248;29;20345;-77
2022/07/22 06:08:28;;;;;;;2.83;1.15;;;17.70;99.90;;;;;;4847827;29;20037;-77
2022/07/22 06:10:53;;;;;;;8.70;0.80;;;17.60;99.90;;;;;;4838493;29;20057;-77
2022/07/22 06:13:19;;;;;;;1.80;0.77;;;17.70;99.90;;;;;;4859008;29;20064;-77
2022/07/22 06:15:45;;;;;;;1.88;0.70;;;17.80;99.90;;;;;;4881253;29;20033;-77
2022/07/22 06:18:11;;;;;;;3.50;1.52;;;17.80;99.90;;;;;;4867382;29;20479;-77
2022/07/22 06:20:36;;;;;;;4.63;0.70;;;18.00;99.90;;;;;;4860467;29;20037;-77
2022/07/22 06:23:03;;;;;;;0.73;0.65;;;18.00;99.90;;;;;;4842607;29;20066;-77
2022/07/22 06:25:29;;;;;;;1.30;0.50;;;18.10;99.90;;;;;;4859595;29;20100;-77
2022/07/22 06:27:55;;;;;;;1.48;0.60;;;18.10;99.90;;;;;;4855476;29;20034;-77
2022/07/22 06:30:20;;;;;;;7.57;0.98;;;18.10;99.90;;;;;;4862280;29;20435;-77
2022/07/22 06:32:46;;;;;;;3.65;0.80;;;18.20;99.90;;;;;;4860547;29;20030;-77
2022/07/22 06:35:11;;;;;;;3.95;0.60;;;18.20;99.90;;;;;;4861946;29;20085;-77
2022/07/22 06:37:37;;;;;;;3.75;0.70;;;18.30;99.90;;;;;;4842918;29;20065;-77
2022/07/22 06:40:03;;;;;;;2.30;0.50;;;18.40;99.90;;;;;;4840489;29;20055;-77
2022/07/22 06:42:29;;;;;;;1.48;0.70;;;18.40;99.90;;;;;;4835708;29;20418;-78
2022/07/22 06:44:55;;;;;;;3.42;0.73;;;18.60;99.90;;;;;;4846217;29;20045;-77
2022/07/22 06:47:20;;;;;;;1.83;0.63;;;19.00;99.90;;;;;;4842727;29;20026;-78
2022/07/22 06:49:46;;;;;;;1.88;1.02;;;19.20;99.90;;;;;;4840788;29;20036;-77
2022/07/22 06:52:11;;;;;;;0.95;0.70;;;19.20;99.90;;;;;;4840387;29;20506;-76
2022/07/22 06:54:37;;;;;;;2.90;0.63;;;19.00;99.90;;;;;;4838329;29;20032;-77
2022/07/22 06:57:03;;;;;;;2.47;0.77;;;18.90;99.90;;;;;;4841099;29;20042;-77
2022/07/22 06:59:28;;;;;;;0.65;0.65;;;18.80;99.90;;;;;;4840813;29;20127;-78
2022/07/22 07:01:54;;;;;;;3.95;0.85;;;18.80;99.90;;;;;;4841324;29;20022;-77
2022/07/22 07:04:19;;;;;;;3.22;0.68;;;19.00;99.90;;;;;;4836615;29;20029;-77
2022/07/22 07:06:45;;;;;;;6.00;0.75;;;19.90;99.90;;;;;;4842356;29;20638;-76
2022/07/22 07:09:11;;;;;;;1.98;0.68;;;20.30;99.90;;;;;;4840800;29;20038;-77
2022/07/22 07:11:37;;;;;;;5.78;0.77;;;20.20;99.90;;;;;;4846177;29;20413;-76
2022/07/22 07:14:02;;;;;;;8.10;0.90;;;19.90;99.90;;;;;;4848450;29;20490;-77
2022/07/22 07:16:28;;;;;;;3.40;1.08;;;19.80;99.90;;;;;;4840157;29;20033;-77
2022/07/22 07:18:54;;;;;;;4.30;0.75;;;19.70;99.90;;;;;;4834179;29;20044;-77
2022/07/22 07:21:20;;;;;;;5.53;1.33;;;19.60;99.90;;;;;;4839792;29;20025;-77
2022/07/22 07:23:45;;;;;;;2.05;0.60;;;19.40;99.90;;;;;;4845480;29;20467;-77
2022/07/22 07:26:11;;;;;;;3.92;1.92;;;19.20;99.90;;;;;;4839897;29;20029;-76
2022/07/22 07:28:37;;;;;;;5.70;0.65;;;19.10;99.90;;;;;;4853237;29;20505;-77
2022/07/22 07:31:02;;;;;;;3.60;0.70;;;19.20;99.90;;;;;;4839181;29;20098;-76
2022/07/22 07:33:28;;;;;;;2.22;0.98;;;19.10;99.90;;;;;;4853051;29;20134;-77
2022/07/22 07:35:54;;;;;;;1.63;0.90;;;19.00;99.90;;;;;;4837806;29;20058;-76
2022/07/22 07:38:19;;;;;;;1.27;0.57;;;19.00;99.90;;;;;;4837637;29;20102;-77
2022/07/22 07:40:45;;;;;;;0.80;0.63;;;18.90;99.90;;;;;;4859437;29;20041;-77
2022/07/22 07:43:11;;;;;;;3.75;1.02;;;18.90;99.90;;;;;;4864883;29;20108;-77
2022/07/22 07:45:36;;;;;;;3.05;0.63;;;18.80;99.90;;;;;;4843314;29;20046;-77
2022/07/22 07:48:03;;;;;;;2.60;1.05;;;18.80;99.90;;;;;;4856065;29;20052;-77
2022/07/22 07:50:29;;;;;;;3.35;0.80;;;18.70;99.90;;;;;;4861230;29;20026;-77
2022/07/22 07:52:55;;;;;;;3.38;0.80;;;18.70;99.90;;;;;;4839782;29;20065;-77
2022/07/22 07:55:21;;;;;;;3.15;0.82;;;18.60;99.90;;;;;;4848772;29;20041;-76
2022/07/22 07:57:48;;;;;;;1.67;0.60;;;18.60;99.90;;;;;;4860241;29;20036;-77
2022/07/22 08:00:15;;;;;;;6.45;1.08;;;18.50;99.90;;;;;;4854034;29;20065;-77
2022/07/22 08:02:41;;;;;;;2.83;0.80;;;18.50;99.90;;;;;;4853223;29;20053;-78
2022/07/22 08:05:08;;;;;;;2.40;0.52;;;18.60;99.90;;;;;;4858981;29;20094;-76
2022/07/22 08:07:34;;;;;;;1.55;0.70;;;18.60;99.90;;;;;;4862199;29;20086;-77
2022/07/22 08:10:00;;;;;;;2.38;0.50;;;18.70;99.90;;;;;;4836808;29;20042;-78
2022/07/22 08:12:25;;;;;;;4.63;1.10;;;18.80;99.90;;;;;;4838322;29;20018;-78
2022/07/22 08:14:51;;;;;;;2.08;0.70;;;18.80;99.90;;;;;;4839451;29;20125;-77
2022/07/22 08:17:17;;;;;;;1.10;0.90;;;18.90;99.90;;;;;;4865957;29;20330;-77
2022/07/22 08:19:42;;;;;;;4.10;1.00;;;18.80;99.90;;;;;;4862694;29;20492;-77
2022/07/22 08:22:08;;;;;;;1.30;0.82;;;18.90;99.90;;;;;;4839598;29;20033;-78
2022/07/22 08:24:34;;;;;;;0.52;0.52;;;18.90;99.90;;;;;;4854373;29;20486;-78
2022/07/22 08:26:59;;;;;;;2.33;1.00;;;18.80;99.90;;;;;;4849540;29;20565;-78
2022/07/22 08:29:25;;;;;;;1.45;0.50;;;19.00;99.90;;;;;;4839706;29;20549;-78
2022/07/22 08:31:51;;;;;;;1.42;0.80;;;19.10;99.90;;;;;;4842997;29;20029;-76
2022/07/22 08:34:18;;;;;;;6.57;1.38;;;19.20;99.90;;;;;;4858024;29;20038;-77
2022/07/22 08:36:43;;;;;;;3.33;1.08;;;19.20;99.90;;;;;;4857938;29;20034;-78
2022/07/22 08:39:09;;;;;;;2.70;0.60;;;19.40;99.90;;;;;;4835912;29;20521;-78
2022/07/22 08:41:38;;;;;;;1.60;1.35;;;19.50;99.90;;;;;;4840825;29;20021;-78
2022/07/22 08:44:05;;;;;;;2.28;0.80;;;19.70;99.90;;;;;;4841652;29;20491;-78
2022/07/22 08:46:31;;;;;;;2.65;1.20;;;19.90;99.90;;;;;;4838507;29;20061;-77
2022/07/22 08:49:00;;;;;;;4.15;1.13;;;20.10;99.90;;;;;;4841052;29;20065;-78
2022/07/22 08:51:26;;;;;;;2.10;1.17;;;20.20;99.90;;;;;;4833770;29;20038;-77
2022/07/22 08:53:51;;;;;;;1.23;1.13;;;20.20;99.90;;;;;;4838121;29;20030;-77
2022/07/22 08:56:17;;;;;;;5.88;1.27;;;20.30;99.90;;;;;;4849153;29;20041;-78
2022/07/22 08:58:42;;;;;;;2.25;1.48;;;20.40;99.90;;;;;;4853193;29;20117;-78
2022/07/22 09:01:14;;;;;;;3.85;1.17;;;20.40;99.90;;;;;;4836267;29;20380;-78
2022/07/22 09:03:49;;;;;;;5.97;1.30;;;20.30;99.90;;;;;;4839177;29;20045;-78
2022/07/22 09:06:20;;;;;;;2.60;1.27;;;20.30;99.90;;;;;;4839465;29;20038;-77
2022/07/22 09:08:59;;;;;;;2.05;1.30;;;20.50;99.90;;;;;;4832723;29;20116;-78
2022/07/22 09:11:28;;;;;;;2.92;1.35;;;20.60;99.90;;;;;;4841526;29;20479;-78
2022/07/22 09:13:55;;;;;;;5.95;1.73;;;20.60;99.90;;;;;;4851443;29;20121;-78
2022/07/22 09:16:42;;;;;;;2.90;1.63;;;20.60;99.90;;;;;;4840922;29;20044;-78
2022/07/22 09:19:08;;;;;;;4.35;1.70;;;20.80;99.90;;;;;;4831126;29;20465;-77
2022/07/22 09:21:40;;;;;;;4.75;2.08;;;20.90;99.90;;;;;;4837840;29;20133;-76
2022/07/22 09:24:06;;;;;;;6.45;1.83;;;20.80;99.90;;;;;;4837602;29;20064;-76
2022/07/22 09:26:33;;;;;;;4.53;2.25;;;20.70;99.90;;;;;;4838542;29;20086;-76
2022/07/22 09:29:00;;;;;;;3.42;2.00;;;20.50;99.90;;;;;;4842903;29;20034;-76
2022/07/22 09:31:50;;;;;;;5.47;2.45;;;20.50;99.90;;;;;;4842506;29;20037;-75
2022/07/22 09:34:27;;;;;;;2.95;2.65;;;20.40;99.90;;;;;;4850875;29;20026;-75
2022/07/22 09:36:57;;;;;;;7.53;3.43;;;20.30;99.90;;;;;;4838921;29;20034;-76
2022/07/22 09:39:28;;;;;;;5.88;3.28;;;20.30;99.90;;;;;;4833329;29;20514;-75
2022/07/22 09:41:58;;;;;;;7.25;2.92;;;20.30;99.90;;;;;;4834703;29;20601;-75
2022/07/22 09:44:23;;;;;;;7.03;2.72;;;20.50;99.90;;;;;;4832844;29;20486;-74
2022/07/22 09:46:49;;;;;;;3.58;2.05;;;20.60;99.90;;;;;;4842858;29;20044;-75
2022/07/22 09:49:40;;;;;;;4.35;2.92;;;20.70;99.90;;;;;;4837185;29;20555;-75
2022/07/22 09:52:06;;;;;;;4.35;2.70;;;20.60;99.90;;;;;;4842206;29;20034;-75
2022/07/22 09:54:32;;;;;;;4.97;3.00;;;20.40;99.90;;;;;;4840501;29;20116;-75
2022/07/22 09:56:58;;;;;;;6.57;2.92;;;20.10;99.90;;;;;;4850236;29;20486;-75
2022/07/22 09:59:24;;;;;;;3.40;3.10;;;19.90;99.90;;;;;;4861053;29;20117;-75
2022/07/22 10:01:54;;;;;;;3.90;2.50;;;19.90;99.90;;;;;;4858698;29;20109;-75
2022/07/22 10:04:20;;;;;;;5.43;2.90;;;19.90;99.90;;;;;;4841491;29;20058;-75
2022/07/22 10:06:47;;;;;;;5.50;2.97;;;20.00;99.90;;;;;;4842235;29;20044;-76
2022/07/22 10:09:16;;;;;;;3.25;2.17;;;20.10;99.90;;;;;;4837050;29;20086;-74
2022/07/22 10:11:46;;;;;;;4.45;2.40;;;20.10;99.90;;;;;;4840804;29;20073;-75
2022/07/22 10:14:14;;;;;;;5.68;2.22;;;20.00;99.90;;;;;;4844951;29;20029;-75
2022/07/22 10:16:40;;;;;;;3.85;2.45;;;19.90;99.90;;;;;;4837199;29;20448;-75
2022/07/22 10:19:07;;;;;;;3.35;2.35;;;19.80;99.90;;;;;;4838963;29;20566;-75
2022/07/22 10:21:34;;;;;;;3.75;2.28;;;19.80;99.90;;;;;;4841740;29;20060;-75
2022/07/22 10:24:18;;;;;;;3.30;2.58;;;19.80;99.90;;;;;;4836683;29;20049;-75
2022/07/22 10:26:50;;;;;;;2.60;2.40;;;19.70;99.90;;;;;;4833796;29;20038;-75
2022/07/22 10:29:44;;;;;;;2.90;2.35;;;19.80;99.90;;;;;;4838467;29;20022;-75
2022/07/22 10:32:15;;;;;;;4.80;1.90;;;19.90;99.90;;;;;;4836558;29;20506;-75
2022/07/22 10:34:41;;;;;;;4.40;2.13;;;19.90;99.90;;;;;;4837307;29;20490;-75
2022/07/22 10:37:35;;;;;;;3.28;2.03;;;19.80;99.90;;;;;;4833187;29;20027;-75
2022/07/22 10:40:21;;;;;;;4.00;2.15;;;19.80;99.90;;;;;;4833575;29;20045;-75
2022/07/22 10:43:03;;;;;;;4.43;2.40;;;20.20;99.90;;;;;;4836029;29;20057;-75
2022/07/22 10:45:34;;;;;;;2.92;1.95;;;20.40;99.90;;;;;;4838535;29;20030;-75
2022/07/22 10:48:05;;;;;;;4.55;2.05;;;20.40;99.90;;;;;;4836346;29;20037;-75
2022/07/22 10:50:40;;;;;;;4.03;2.35;;;20.70;99.90;;;;;;4842056;29;20034;-75
2022/07/22 10:53:12;;;;;;;4.30;1.75;;;21.40;99.90;;;;;;4831695;29;20371;-75
2022/07/22 10:55:58;;;;;;;1.90;1.80;;;21.80;99.90;;;;;;4837336;29;20068;-75
2022/07/22 10:58:33;;;;;;;5.22;2.08;;;21.70;99.90;;;;;;4839926;29;20042;-75
2022/07/22 11:01:01;;;;;;;4.32;2.53;;;21.30;99.90;;;;;;4838648;29;20034;-75
2022/07/22 11:03:29;;;;;;;2.65;2.42;;;21.30;99.90;;;;;;4850531;29;20057;-75
2022/07/22 11:05:56;;;;;;;3.83;2.28;;;21.30;99.90;;;;;;4845985;29;20030;-75
2022/07/22 11:08:22;;;;;;;4.90;1.88;;;21.20;99.90;;;;;;4839562;29;21826;-75
2022/07/22 11:10:51;;;;;;;3.78;1.92;;;21.30;99.90;;;;;;4830066;29;20534;-75
2022/07/22 11:13:36;;;;;;;5.30;2.67;;;21.60;99.90;;;;;;4849721;29;20036;-75
2022/07/22 11:16:22;;;;;;;7.40;3.45;;;21.80;99.90;;;;;;4833961;29;20044;-76
2022/07/22 11:18:49;;;;;;;7.85;3.33;;;21.90;99.90;;;;;;4839256;29;20030;-75
2022/07/22 11:21:20;;;;;;;3.95;3.13;;;22.10;99.90;;;;;;4850813;29;20098;-76
2022/07/22 11:23:48;;;;;;;3.40;2.80;;;22.20;99.90;;;;;;4843590;29;20040;-75
2022/07/22 11:26:15;;;;;;;4.97;3.08;;;22.20;99.60;;;;;;4841162;29;20046;-75
2022/07/22 11:28:42;;;;;;;;;;;22.40;99.50;;;;;;4847184;29;20090;-75
2022/07/22 11:31:09;;;;;;;2.57;1.90;;;22.20;99.10;;;;;;4841231;29;20392;-76
2022/07/22 11:33:35;;;;;;;5.05;2.70;;;22.10;99.60;;;;;;4837684;29;20037;-76
2022/07/22 11:36:02;;;;;;;3.83;2.90;;;22.00;99.60;;;;;;4839008;29;20086;-75
2022/07/22 11:39:01;;;;;;;2.80;2.50;;;21.90;99.60;;;;;;4840203;29;20041;-75
2022/07/22 11:41:29;;;;;;;4.18;2.88;;;21.70;99.90;;;;;;4839726;29;20084;-75
2022/07/22 11:43:54;;;;;;;7.88;3.67;;;21.60;99.90;;;;;;4841890;29;20098;-75
2022/07/22 11:46:20;;;;;;;3.05;1.90;;;21.50;99.90;;;;;;4847922;29;20506;-75
2022/07/22 11:48:46;;;;;;;2.22;2.03;;;21.70;99.90;;;;;;4839697;29;20025;-76
2022/07/22 11:51:14;;;;;;;2.00;1.88;;;22.10;99.70;;;;;;4844313;29;20100;-76
2022/07/22 11:53:40;;;;;;;1.80;1.70;;;22.30;99.50;;;;;;4858410;29;20022;-75
2022/07/22 11:56:08;;;;;;;2.13;1.50;;;22.10;99.50;;;;;;4860809;29;20029;-76
2022/07/22 11:58:45;;;;;;;2.78;1.65;;;22.00;99.70;;;;;;4857256;29;20116;-76
2022/07/22 12:01:16;;;;;;;3.30;1.70;;;21.90;99.90;;;;;;4841565;29;20029;-76
2022/07/22 12:03:49;;;;;;;3.47;1.63;;;21.80;99.90;;;;;;4840787;29;20042;-76
2022/07/22 12:06:16;;;;;;;5.07;1.75;;;21.80;99.80;;;;;;4841495;29;20525;-76
2022/07/22 12:09:01;;;;;;;3.10;2.17;;;21.80;99.90;;;;;;4852327;29;20033;-76
2022/07/22 12:11:27;;;;;;;2.50;1.75;;;21.60;99.90;;;;;;4838880;29;20025;-76
2022/07/22 12:13:53;;;;;;;2.03;1.42;;;21.70;99.90;;;;;;4853578;29;20085;-76
2022/07/22 12:16:26;;;;;;;3.75;1.52;;;21.80;99.90;;;;;;4836952;29;20433;-76
2022/07/22 12:19:09;;;;;;;3.88;1.73;;;22.00;99.90;;;;;;4833306;29;20036;-76
2022/07/22 12:21:57;;;;;;;4.15;1.90;;;22.00;99.90;;;;;;4847700;29;20073;-76
2022/07/22 12:24:34;;;;;;;2.75;1.30;;;21.90;99.40;;;;;;4857672;29;20081;-76
2022/07/22 12:27:06;;;;;;;3.38;1.48;;;21.60;99.80;;;;;;4851012;29;20428;-76
2022/07/22 12:29:37;;;;;;;1.95;1.23;;;21.40;99.90;;;;;;4855633;29;20516;-76
2022/07/22 12:32:15;;;;;;;1.65;1.42;;;21.20;99.90;;;;;;4852745;29;20098;-76
2022/07/22 12:34:42;;;;;;;3.90;1.42;;;21.10;99.90;;;;;;4838613;29;20090;-76
2022/07/22 12:37:25;;;;;;;5.20;1.17;;;21.00;99.90;;;;;;4853560;29;20021;-76
2022/07/22 12:39:56;;;;;;;1.80;1.42;;;21.00;99.90;;;;;;4852612;29;20034;-76
2022/07/22 12:42:22;;;;;;;1.50;1.10;;;21.10;99.90;;;;;;4835966;29;20033;-76
2022/07/22 12:44:53;;;;;;;1.52;1.10;;;21.20;99.90;;;;;;4850251;29;20064;-76
2022/07/22 12:47:43;;;;;;;3.67;1.67;;;21.30;99.70;;;;;;4854984;29;20029;-76
2022/07/22 12:50:24;;;;;;;1.58;1.00;;;21.30;99.70;;;;;;4860397;29;20025;-76